Time;durP1;ratioP1;P1;durP2;ratioP2;P2;SDS_P1;SDS_P2;PMS_P1;PMS_P2;Temp;Humidity;BMP_temperature;BMP_pressure;BME280_temperature;BME280_humidity;BME280_pressure;Samples;Min_cycle;Max_cycle;Signal;HPM_P1;HPM_P2
2022/01/13 00:00:37;;;;;;;27.58;16.25;;;0.20;99.90;;;;;;5050013;28;20044;-74
2022/01/13 00:03:03;;;;;;;21.63;15.63;;;0.10;99.90;;;;;;5051793;28;20043;-74
2022/01/13 00:05:30;;;;;;;25.05;16.55;;;0.10;99.90;;;;;;5051019;28;20460;-74
2022/01/13 00:07:57;;;;;;;26.05;17.35;;;0.00;99.90;;;;;;5051395;28;20023;-74
2022/01/13 00:10:25;;;;;;;26.67;16.58;;;0.00;99.90;;;;;;5050668;28;20028;-74
2022/01/13 00:12:59;;;;;;;24.80;14.70;;;0.70;99.90;;;;;;5051863;28;20331;-74
2022/01/13 00:15:39;;;;;;;28.08;16.80;;;-0.20;99.90;;;;;;5050897;28;20036;-74
2022/01/13 00:18:18;;;;;;;25.77;16.02;;;-0.20;99.90;;;;;;5051574;28;20047;-74
2022/01/13 00:25:58;;;;;;;24.92;15.77;;;-0.10;99.90;;;;;;5034593;28;20489;-74
2022/01/13 00:28:25;;;;;;;27.55;15.57;;;-0.20;99.90;;;;;;5031517;28;20026;-74
2022/01/13 00:30:54;;;;;;;24.10;15.63;;;-0.20;99.90;;;;;;5051211;28;20068;-74
2022/01/13 00:33:24;;;;;;;25.75;16.25;;;-0.30;99.90;;;;;;5051274;28;20018;-74
2022/01/13 00:35:51;;;;;;;23.73;15.65;;;-0.40;99.90;;;;;;5033130;28;20026;-74
2022/01/13 00:38:17;;;;;;;28.02;16.75;;;-0.30;99.90;;;;;;5031391;28;20382;-74
2022/01/13 00:40:42;;;;;;;23.38;15.35;;;-0.30;99.90;;;;;;5030979;28;20026;-74
2022/01/13 00:43:08;;;;;;;26.38;17.00;;;-0.40;99.90;;;;;;5034371;28;20063;-74
2022/01/13 00:45:33;;;;;;;24.30;15.43;;;-0.30;99.90;;;;;;5045370;28;20036;-74
2022/01/13 00:47:59;;;;;;;28.52;16.60;;;-0.10;99.90;;;;;;5055012;28;20493;-74
2022/01/13 00:50:24;;;;;;;26.95;15.30;;;-0.10;99.90;;;;;;5053411;28;20033;-74
2022/01/13 00:52:50;;;;;;;25.05;15.93;;;0.10;99.90;;;;;;5054692;28;20079;-74
2022/01/13 00:55:21;;;;;;;22.13;14.38;;;0.30;99.90;;;;;;5053351;28;20374;-74
2022/01/13 00:57:47;;;;;;;22.65;14.20;;;1.50;99.90;;;;;;5053056;28;20036;-74
2022/01/13 01:00:14;;;;;;;24.25;15.20;;;0.40;99.90;;;;;;5053067;28;20029;-74
2022/01/13 01:02:39;;;;;;;22.17;14.75;;;0.60;99.90;;;;;;5054789;28;20075;-74
2022/01/13 01:05:05;;;;;;;22.25;14.25;;;0.40;99.90;;;;;;5043130;28;20037;-74
2022/01/13 01:07:31;;;;;;;24.88;15.60;;;0.40;99.90;;;;;;5033456;28;20037;-74
2022/01/13 01:09:58;;;;;;;24.75;15.85;;;0.50;99.90;;;;;;5033947;28;20025;-74
2022/01/13 01:12:24;;;;;;;23.35;14.93;;;0.50;99.90;;;;;;5033472;28;20022;-74
2022/01/13 01:14:56;;;;;;;21.58;15.50;;;0.60;99.90;;;;;;5045487;28;20099;-74
2022/01/13 01:17:21;;;;;;;19.95;14.30;;;0.50;99.90;;;;;;5054628;28;20025;-74
2022/01/13 01:19:50;;;;;;;21.30;14.57;;;0.50;99.90;;;;;;5053934;28;20025;-74
2022/01/13 01:27:31;;;;;;;22.65;14.38;;;1.30;99.90;;;;;;5034300;28;20069;-74
2022/01/13 01:30:03;;;;;;;22.92;14.82;;;0.30;99.90;;;;;;5047089;28;20120;-74
2022/01/13 01:32:31;;;;;;;24.23;15.98;;;0.40;99.90;;;;;;5054451;28;20032;-74
2022/01/13 01:35:01;;;;;;;23.98;15.77;;;0.50;99.90;;;;;;5053490;28;20032;-74
2022/01/13 01:37:28;;;;;;;21.73;15.63;;;0.50;99.90;;;;;;5052896;28;20516;-74
2022/01/13 01:39:56;;;;;;;22.42;15.55;;;0.50;99.90;;;;;;5051874;28;20060;-74
2022/01/13 01:42:23;;;;;;;23.27;15.57;;;0.40;99.90;;;;;;5053679;28;20033;-74
2022/01/13 01:44:52;;;;;;;23.23;16.08;;;0.60;99.90;;;;;;5053240;28;20029;-74
2022/01/13 01:47:20;;;;;;;23.38;16.13;;;0.60;99.90;;;;;;5053912;28;20021;-74
2022/01/13 01:49:49;;;;;;;26.02;16.83;;;0.70;99.90;;;;;;5052004;28;20444;-74
2022/01/13 01:52:19;;;;;;;25.27;16.70;;;0.70;99.90;;;;;;5053846;28;20151;-74
2022/01/13 01:54:47;;;;;;;25.98;15.93;;;3.10;99.90;;;;;;5052283;28;20048;-73
2022/01/13 01:57:14;;;;;;;22.13;15.82;;;0.70;99.90;;;;;;5053325;28;20025;-73
2022/01/13 01:59:42;;;;;;;26.92;16.73;;;0.70;99.90;;;;;;5064100;28;20082;-73
2022/01/13 02:02:10;;;;;;;24.38;15.70;;;0.60;99.90;;;;;;5073773;28;20040;-73
2022/01/13 02:04:36;;;;;;;27.45;15.63;;;1.40;99.90;;;;;;5057510;28;20034;-73
2022/01/13 02:07:05;;;;;;;25.38;16.17;;;0.40;99.90;;;;;;5053122;28;20020;-73
2022/01/13 02:09:34;;;;;;;26.85;16.48;;;0.30;99.90;;;;;;5052798;28;20021;-73
2022/01/13 02:12:05;;;;;;;25.88;17.35;;;0.10;99.90;;;;;;5052420;28;20022;-73
2022/01/13 02:14:34;;;;;;;25.77;17.70;;;0.00;99.90;;;;;;5053218;28;20090;-74
2022/01/13 02:17:13;;;;;;;25.88;16.48;;;-0.10;99.90;;;;;;5052136;28;20032;-74
2022/01/13 02:19:44;;;;;;;23.90;16.13;;;-0.20;99.90;;;;;;5052762;28;20108;-73
2022/01/13 02:22:09;;;;;;;22.90;16.42;;;-0.20;99.90;;;;;;5053379;28;20420;-73
2022/01/13 02:24:35;;;;;;;21.92;14.90;;;-0.20;99.90;;;;;;5037571;28;20033;-73
2022/01/13 02:27:03;;;;;;;28.92;17.02;;;-0.40;99.90;;;;;;5033434;28;20029;-73
2022/01/13 02:29:29;;;;;;;23.98;15.70;;;-0.50;99.90;;;;;;5051666;28;20040;-73
2022/01/13 02:31:55;;;;;;;25.33;16.08;;;-0.60;99.90;;;;;;5073684;28;20028;-73
2022/01/13 02:34:20;;;;;;;23.38;15.23;;;-0.80;99.90;;;;;;5052151;28;20046;-73
2022/01/13 02:36:49;;;;;;;23.20;14.90;;;-1.00;99.90;;;;;;5034093;28;20075;-73
2022/01/13 02:39:15;;;;;;;27.33;17.02;;;-1.20;99.90;;;;;;5031194;28;20066;-72
2022/01/13 02:41:40;;;;;;;27.83;17.25;;;-1.30;99.90;;;;;;5032982;28;20041;-72
2022/01/13 02:44:14;;;;;;;28.55;18.17;;;-1.30;99.90;;;;;;5033051;28;20040;-72
2022/01/13 02:49:08;;;;;;;29.88;17.58;;;-1.40;99.90;;;;;;5052560;28;20025;-73
2022/01/13 02:51:34;;;;;;;27.80;18.00;;;-1.60;99.90;;;;;;5052680;28;20079;-73
2022/01/13 02:54:00;;;;;;;34.60;19.88;;;-1.70;99.90;;;;;;5049214;28;20037;-72
2022/01/13 02:56:27;;;;;;;32.08;18.45;;;-1.70;99.90;;;;;;5032749;28;20040;-73
2022/01/13 02:58:52;;;;;;;31.58;20.25;;;-1.50;99.90;;;;;;5032242;28;20029;-73
2022/01/13 03:01:18;;;;;;;32.88;19.33;;;-1.40;99.90;;;;;;5032660;28;20441;-73
2022/01/13 03:03:44;;;;;;;31.60;19.02;;;-1.40;99.90;;;;;;5045382;28;20032;-72
2022/01/13 03:06:13;;;;;;;39.53;20.38;;;-1.50;99.90;;;;;;5032619;28;20109;-73
2022/01/13 03:08:42;;;;;;;32.97;19.23;;;-1.60;99.90;;;;;;5034641;28;20036;-73
2022/01/13 03:11:09;;;;;;;30.70;19.23;;;-1.70;99.90;;;;;;5031646;28;20104;-73
2022/01/13 03:13:34;;;;;;;30.20;18.30;;;-1.70;99.90;;;;;;5032309;28;20067;-73
2022/01/13 03:16:08;;;;;;;32.15;20.65;;;-2.10;99.90;;;;;;5051831;28;20060;-73
2022/01/13 03:18:34;;;;;;;37.10;20.40;;;-2.00;99.90;;;;;;5050303;28;20075;-73
2022/01/13 03:20:59;;;;;;;33.78;19.60;;;-2.00;99.90;;;;;;5052325;28;20021;-74
2022/01/13 03:23:25;;;;;;;34.83;20.50;;;-2.10;99.90;;;;;;5047298;28;20099;-73
2022/01/13 03:25:51;;;;;;;35.70;19.75;;;-2.20;99.90;;;;;;5049309;28;20708;-73
2022/01/13 03:28:28;;;;;;;35.58;21.00;;;-2.00;99.90;;;;;;5051909;28;20500;-73
2022/01/13 03:30:54;;;;;;;32.67;19.23;;;-2.00;99.90;;;;;;5032030;28;20113;-73
2022/01/13 03:33:19;;;;;;;34.17;20.77;;;-1.90;99.90;;;;;;5032180;28;20051;-73
2022/01/13 03:35:45;;;;;;;32.88;20.40;;;-1.90;99.90;;;;;;5032481;28;20040;-73
2022/01/13 03:38:11;;;;;;;38.35;21.65;;;-1.90;99.90;;;;;;5032080;28;20479;-73
2022/01/13 03:40:37;;;;;;;40.22;23.10;;;-2.00;99.90;;;;;;5029825;28;20026;-73
2022/01/13 03:43:04;;;;;;;36.53;20.58;;;-1.90;99.90;;;;;;5031824;28;20032;-73
2022/01/13 03:45:32;;;;;;;37.28;21.42;;;-1.90;99.90;;;;;;5036218;28;20022;-73
2022/01/13 03:48:01;;;;;;;38.17;22.55;;;-1.80;99.90;;;;;;5031843;28;20032;-73
2022/01/13 03:50:26;;;;;;;38.40;21.35;;;-2.00;99.90;;;;;;5031463;28;20037;-73
2022/01/13 03:53:01;;;;;;;34.47;20.80;;;-2.00;99.90;;;;;;5030533;28;20022;-73
2022/01/13 03:55:36;;;;;;;38.00;22.02;;;-1.90;99.90;;;;;;5035048;28;20032;-73
2022/01/13 03:58:38;;;;;;;44.47;22.98;;;-2.00;99.90;;;;;;5031845;28;20482;-74
2022/01/13 04:01:31;;;;;;;39.08;23.13;;;-2.10;99.90;;;;;;5031827;28;20051;-74
2022/01/13 04:03:56;;;;;;;39.30;21.98;;;-2.10;99.90;;;;;;5032231;28;20034;-74
2022/01/13 04:06:22;;;;;;;37.25;21.60;;;-2.10;99.90;;;;;;5031673;28;20033;-74
2022/01/13 04:08:49;;;;;;;35.78;22.05;;;-2.20;99.90;;;;;;5030999;28;20021;-74
2022/01/13 04:11:24;;;;;;;38.63;22.00;;;-2.40;99.90;;;;;;5031696;28;20025;-74
2022/01/13 04:13:59;;;;;;;43.30;22.80;;;-2.30;99.90;;;;;;5032294;28;20029;-74
2022/01/13 04:16:32;;;;;;;43.15;24.80;;;-2.30;99.90;;;;;;5051556;28;20032;-74
2022/01/13 04:19:02;;;;;;;39.10;22.38;;;-2.10;99.90;;;;;;5052241;28;20026;-74
2022/01/13 04:21:28;;;;;;;43.95;23.38;;;-2.00;99.90;;;;;;5055346;28;20036;-74
2022/01/13 04:23:56;;;;;;;42.50;22.65;;;-2.00;99.90;;;;;;5054547;28;20128;-74
2022/01/13 04:26:28;;;;;;;42.88;23.58;;;-2.00;99.90;;;;;;5035386;28;20030;-74
2022/01/13 04:29:03;;;;;;;41.27;22.87;;;-2.10;99.90;;;;;;5037949;28;20087;-74
2022/01/13 04:31:29;;;;;;;43.95;23.45;;;-2.30;99.90;;;;;;5056171;23;20788;-75
2022/01/13 04:33:55;;;;;;;40.58;23.02;;;-2.30;99.90;;;;;;5015377;28;20026;-75
2022/01/13 04:36:21;;;;;;;37.60;22.33;;;-2.40;99.90;;;;;;4995953;28;20027;-75
2022/01/13 04:38:46;;;;;;;41.60;22.58;;;-2.50;99.90;;;;;;4995126;28;20429;-75
2022/01/13 04:41:14;;;;;;;42.55;23.33;;;-2.50;99.90;;;;;;4998314;28;20037;-74
2022/01/13 04:43:42;;;;;;;40.15;22.27;;;-2.50;99.90;;;;;;5015855;28;20026;-75
2022/01/13 04:46:07;;;;;;;39.33;22.67;;;-2.70;99.90;;;;;;5014281;28;20065;-74
2022/01/13 04:48:33;;;;;;;43.05;24.08;;;-2.70;99.90;;;;;;5014487;28;20034;-74
2022/01/13 04:50:59;;;;;;;46.42;25.25;;;-2.70;99.90;;;;;;5015279;28;20037;-74
2022/01/13 04:53:24;;;;;;;48.45;25.85;;;-2.50;99.90;;;;;;5014907;28;20057;-74
2022/01/13 04:55:52;;;;;;;43.92;24.60;;;-2.40;99.90;;;;;;5014589;28;20543;-74
2022/01/13 04:58:21;;;;;;;52.13;26.75;;;-2.50;99.90;;;;;;5015299;28;20087;-74
2022/01/13 05:00:47;;;;;;;54.67;27.30;;;-2.40;99.90;;;;;;4995573;28;20027;-74
2022/01/13 05:03:13;;;;;;;46.60;26.05;;;-2.30;99.90;;;;;;5006191;28;20176;-74
2022/01/13 05:05:38;;;;;;;48.20;26.65;;;-2.40;99.90;;;;;;5014602;28;20540;-74
2022/01/13 05:08:04;;;;;;;48.35;25.77;;;-2.50;99.90;;;;;;5013716;28;20045;-74
2022/01/13 05:10:30;;;;;;;46.63;25.98;;;-2.50;99.90;;;;;;5012597;28;20040;-74
2022/01/13 05:12:57;;;;;;;46.47;26.00;;;-2.40;99.90;;;;;;5014935;28;20394;-74
2022/01/13 05:15:26;;;;;;;47.70;25.25;;;-0.70;99.90;;;;;;5014743;28;20022;-75
2022/01/13 05:18:12;;;;;;;43.67;24.08;;;-2.50;99.90;;;;;;5014895;28;20105;-75
2022/01/13 05:20:50;;;;;;;43.83;24.58;;;-2.60;99.90;;;;;;5014297;28;20030;-74
2022/01/13 05:23:17;;;;;;;42.40;24.75;;;-2.50;99.90;;;;;;5013726;28;20030;-74
2022/01/13 05:25:43;;;;;;;43.03;23.83;;;-2.60;99.90;;;;;;5014461;28;20034;-74
2022/01/13 05:28:09;;;;;;;45.40;24.75;;;-2.70;99.90;;;;;;5013412;28;20084;-74
2022/01/13 05:30:36;;;;;;;42.15;24.33;;;-2.50;99.90;;;;;;5011833;28;20113;-74
2022/01/13 05:33:02;;;;;;;50.83;26.75;;;-2.40;99.90;;;;;;5013148;28;20081;-74
2022/01/13 05:35:28;;;;;;;49.28;27.83;;;-2.50;99.90;;;;;;5014126;28;20030;-74
2022/01/13 05:37:54;;;;;;;52.10;26.92;;;-2.50;99.90;;;;;;5014530;28;20034;-74
2022/01/13 05:40:20;;;;;;;48.35;26.45;;;-2.40;99.90;;;;;;5013672;28;20052;-74
2022/01/13 05:42:46;;;;;;;45.53;25.25;;;-2.50;99.90;;;;;;5014154;28;20088;-74
2022/01/13 05:45:16;;;;;;;49.63;26.05;;;-2.60;99.90;;;;;;5014201;28;20534;-74
2022/01/13 05:47:48;;;;;;;49.60;26.58;;;-2.70;99.90;;;;;;5014229;28;20398;-75
2022/01/13 05:50:15;;;;;;;53.22;26.58;;;-2.70;99.90;;;;;;5012603;28;20026;-74
2022/01/13 05:52:41;;;;;;;58.85;28.95;;;-2.70;99.90;;;;;;5014376;28;20026;-74
2022/01/13 05:55:08;;;;;;;56.85;29.58;;;-2.50;99.90;;;;;;5013592;28;20034;-74
2022/01/13 05:57:34;;;;;;;57.63;29.40;;;-2.40;99.90;;;;;;5014400;28;20026;-74
2022/01/13 06:00:00;;;;;;;55.45;30.33;;;-2.40;99.90;;;;;;5013529;28;20033;-75
2022/01/13 06:02:26;;;;;;;56.22;29.73;;;-2.20;99.90;;;;;;5012913;28;20429;-74
2022/01/13 06:04:51;;;;;;;52.53;30.67;;;-2.30;99.90;;;;;;5012638;28;20057;-74
2022/01/13 06:07:17;;;;;;;51.25;28.77;;;-2.40;99.90;;;;;;5013879;28;20105;-74
2022/01/13 06:09:43;;;;;;;55.38;30.33;;;-2.50;99.90;;;;;;5012864;28;20478;-76
2022/01/13 06:12:09;;;;;;;50.15;28.55;;;-2.10;99.90;;;;;;4996236;28;20030;-76
2022/01/13 06:14:35;;;;;;;53.55;29.48;;;-2.00;99.90;;;;;;5013253;28;20084;-74
2022/01/13 06:17:01;;;;;;;50.67;28.15;;;-2.00;99.90;;;;;;5013443;28;20026;-76
2022/01/13 06:19:27;;;;;;;45.75;27.33;;;-2.10;99.90;;;;;;5012902;28;20084;-72
2022/01/13 06:21:53;;;;;;;52.33;28.92;;;-2.00;99.90;;;;;;5013444;28;20482;-73
2022/01/13 06:24:19;;;;;;;51.13;27.55;;;-2.00;99.90;;;;;;5013169;28;20076;-73
2022/01/13 06:26:44;;;;;;;49.03;27.45;;;-1.90;99.90;;;;;;5013461;28;20080;-74
2022/01/13 06:29:10;;;;;;;49.00;29.60;;;-2.00;99.90;;;;;;5011634;28;20018;-74
2022/01/13 06:31:36;;;;;;;44.92;27.27;;;-2.10;99.90;;;;;;5012881;28;20659;-74
2022/01/13 06:34:02;;;;;;;48.13;27.25;;;-0.90;99.90;;;;;;5013054;28;20030;-74
2022/01/13 06:36:28;;;;;;;50.88;27.55;;;-2.10;99.90;;;;;;5013358;28;20562;-75
2022/01/13 06:38:54;;;;;;;44.92;26.30;;;-1.40;99.90;;;;;;5011481;28;20038;-76
2022/01/13 06:41:20;;;;;;;47.60;26.45;;;-2.10;99.90;;;;;;4995450;28;20075;-74
2022/01/13 06:43:46;;;;;;;46.63;26.80;;;-2.30;99.90;;;;;;5012192;28;20058;-74
2022/01/13 06:46:12;;;;;;;46.80;27.00;;;-2.30;99.90;;;;;;5012690;28;20700;-75
2022/01/13 06:48:38;;;;;;;47.03;26.63;;;-2.10;99.90;;;;;;5012503;28;20394;-74
2022/01/13 06:51:04;;;;;;;48.17;27.15;;;-2.30;99.90;;;;;;4995279;28;20032;-75
2022/01/13 06:53:29;;;;;;;44.58;26.05;;;-2.20;99.90;;;;;;5013049;28;20397;-75
2022/01/13 06:55:55;;;;;;;47.88;27.20;;;-2.40;99.90;;;;;;5011350;28;20113;-76
2022/01/13 06:58:21;;;;;;;49.03;28.35;;;-2.50;99.90;;;;;;5012799;28;20046;-75
2022/01/13 07:00:46;;;;;;;48.03;27.00;;;-4.40;99.90;;;;;;5012545;28;20104;-75
2022/01/13 07:03:12;;;;;;;44.30;26.23;;;-2.40;99.90;;;;;;5012854;28;20050;-75
2022/01/13 07:05:38;;;;;;;50.75;26.88;;;-2.60;99.90;;;;;;5012631;28;20061;-75
2022/01/13 07:08:04;;;;;;;52.30;27.55;;;-2.60;99.90;;;;;;5007969;28;20049;-75
2022/01/13 07:10:30;;;;;;;44.40;27.10;;;-2.60;99.90;;;;;;5005481;28;20038;-75
2022/01/13 07:12:55;;;;;;;47.47;27.13;;;-2.50;99.90;;;;;;5007276;28;20038;-75
2022/01/13 07:15:22;;;;;;;45.63;26.35;;;-2.60;99.90;;;;;;5008723;28;20026;-74
2022/01/13 07:17:48;;;;;;;47.95;26.95;;;-2.60;99.90;;;;;;5003590;28;20034;-75
2022/01/13 07:20:14;;;;;;;54.78;28.70;;;-2.60;99.90;;;;;;5006264;28;20513;-75
2022/01/13 07:22:40;;;;;;;51.95;29.48;;;-2.50;99.90;;;;;;5006085;28;20030;-74
2022/01/13 07:25:08;;;;;;;54.28;29.50;;;-2.40;99.90;;;;;;5008126;28;20026;-75
2022/01/13 07:27:34;;;;;;;53.30;30.40;;;-2.30;99.90;;;;;;5006686;28;20034;-74
2022/01/13 07:29:59;;;;;;;50.83;28.80;;;-2.20;99.90;;;;;;5006322;28;20593;-74
2022/01/13 07:32:25;;;;;;;56.58;30.17;;;-2.20;99.90;;;;;;5007632;28;20069;-74
2022/01/13 07:34:51;;;;;;;62.35;31.50;;;-2.30;99.90;;;;;;5001429;28;20030;-73
2022/01/13 07:37:16;;;;;;;58.65;31.83;;;-1.80;99.90;;;;;;5007659;28;20380;-74
2022/01/13 07:39:42;;;;;;;51.08;28.52;;;-2.30;99.90;;;;;;5005683;28;20034;-75
2022/01/13 07:42:08;;;;;;;51.65;29.20;;;-2.30;99.90;;;;;;5008391;28;20044;-74
2022/01/13 07:44:34;;;;;;;53.63;29.63;;;-2.10;99.90;;;;;;5006814;28;20045;-74
2022/01/13 07:47:00;;;;;;;51.55;28.08;;;-2.10;99.90;;;;;;5004316;28;20030;-74
2022/01/13 07:49:27;;;;;;;54.08;30.20;;;-2.10;99.90;;;;;;4994029;28;20034;-74
2022/01/13 07:51:53;;;;;;;50.30;30.27;;;-2.00;99.90;;;;;;5006619;28;20513;-74
2022/01/13 07:54:18;;;;;;;56.17;28.60;;;-1.90;99.90;;;;;;5006154;28;20034;-74
2022/01/13 07:56:44;;;;;;;48.75;28.48;;;-1.90;99.90;;;;;;5010375;28;20037;-75
2022/01/13 07:59:10;;;;;;;52.28;27.73;;;-1.80;99.90;;;;;;5011085;28;20038;-75
2022/01/13 08:01:35;;;;;;;45.15;26.77;;;-1.80;99.90;;;;;;5011738;28;20080;-75
2022/01/13 08:04:01;;;;;;;50.28;27.25;;;-1.50;99.90;;;;;;5011870;28;20109;-75
2022/01/13 08:06:26;;;;;;;46.35;26.30;;;-1.80;99.90;;;;;;5010483;28;20044;-75
2022/01/13 08:08:52;;;;;;;45.38;26.75;;;-1.90;99.90;;;;;;5010589;28;20092;-75
2022/01/13 08:11:18;;;;;;;45.22;26.30;;;-1.70;99.90;;;;;;5010576;28;20026;-75
2022/01/13 08:13:44;;;;;;;47.20;28.35;;;-1.70;99.90;;;;;;5011634;28;20084;-74
2022/01/13 08:16:10;;;;;;;48.08;28.23;;;-1.50;99.90;;;;;;5011690;28;20034;-74
2022/01/13 08:21:23;;;;;;;51.58;27.08;;;-1.40;99.90;;;;;;5012383;28;20049;-75
2022/01/13 08:23:52;;;;;;;47.22;27.67;;;-1.10;99.90;;;;;;4995019;28;20027;-74
2022/01/13 08:26:18;;;;;;;49.30;27.30;;;-0.90;99.90;;;;;;5007278;28;20508;-75
2022/01/13 08:28:44;;;;;;;44.33;26.75;;;-0.80;99.90;;;;;;5009478;28;20100;-74
2022/01/13 08:31:10;;;;;;;55.33;29.83;;;-0.60;99.90;;;;;;5011913;28;20506;-75
2022/01/13 08:33:36;;;;;;;47.05;27.15;;;0.70;99.90;;;;;;5011177;28;20025;-75
2022/01/13 08:36:02;;;;;;;41.58;24.73;;;-0.30;99.90;;;;;;5010233;28;20449;-75
2022/01/13 08:38:28;;;;;;;41.88;24.30;;;-0.40;99.90;;;;;;5011177;28;20022;-74
2022/01/13 08:40:59;;;;;;;39.90;24.08;;;-0.30;99.90;;;;;;5009483;28;20406;-75
2022/01/13 08:43:27;;;;;;;35.50;22.70;;;-0.30;99.90;;;;;;4977996;28;20073;-75
2022/01/13 08:45:53;;;;;;;40.63;23.10;;;-0.20;99.90;;;;;;5005717;28;20037;-75
2022/01/13 08:48:19;;;;;;;37.08;21.77;;;0.10;99.90;;;;;;5010200;28;20108;-75
2022/01/13 08:50:46;;;;;;;35.53;22.02;;;-0.20;99.90;;;;;;5011083;28;20022;-75
2022/01/13 08:53:14;;;;;;;38.97;22.40;;;-0.20;99.90;;;;;;5011479;28;20076;-75
2022/01/13 08:55:39;;;;;;;34.58;21.67;;;0.00;99.90;;;;;;5009805;28;20025;-75
2022/01/13 08:58:05;;;;;;;35.83;21.90;;;0.00;99.90;;;;;;5011480;28;20038;-75
2022/01/13 09:00:32;;;;;;;36.63;22.50;;;0.10;99.90;;;;;;5010857;28;20510;-75
2022/01/13 09:02:58;;;;;;;37.53;21.65;;;0.20;99.90;;;;;;5010483;28;20117;-75
2022/01/13 09:05:23;;;;;;;30.10;20.10;;;0.60;99.90;;;;;;5011735;28;20105;-75
2022/01/13 09:07:49;;;;;;;29.55;19.23;;;1.40;99.90;;;;;;5014730;28;20529;-75
2022/01/13 09:10:16;;;;;;;24.88;18.02;;;2.50;99.90;;;;;;5012824;28;20033;-76
2022/01/13 09:12:42;;;;;;;22.73;15.77;;;3.60;99.90;;;;;;5015008;28;20727;-76
2022/01/13 09:15:17;;;;;;;22.60;15.38;;;4.60;99.90;;;;;;5006778;28;20022;-76
2022/01/13 09:17:44;;;;;;;20.75;13.88;;;5.20;99.90;;;;;;5012627;28;20064;-76
2022/01/13 09:20:15;;;;;;;21.20;15.00;;;6.00;99.90;;;;;;5009216;28;20049;-76
2022/01/13 09:22:41;;;;;;;19.15;13.75;;;6.60;99.90;;;;;;5006340;28;20092;-76
2022/01/13 09:25:11;;;;;;;20.63;13.68;;;7.80;99.90;;;;;;4993991;28;20054;-76
2022/01/13 09:27:40;;;;;;;21.33;13.95;;;7.30;99.90;;;;;;5011662;28;20407;-76
2022/01/13 09:30:08;;;;;;;22.45;12.93;;;7.80;99.90;;;;;;5013888;28;20028;-76
2022/01/13 09:32:36;;;;;;;17.30;12.07;;;8.00;99.90;;;;;;5013081;28;20065;-77
2022/01/13 09:35:03;;;;;;;17.40;12.02;;;8.80;99.90;;;;;;5012847;28;20034;-77
2022/01/13 09:37:28;;;;;;;15.85;10.65;;;8.80;99.90;;;;;;4995002;28;20034;-77
2022/01/13 09:39:56;;;;;;;16.92;11.65;;;;;;;;;;5009081;28;20034;-77
2022/01/13 09:42:22;;;;;;;14.65;10.98;;;;;;;;;;4998749;28;20442;-76
2022/01/13 09:44:49;;;;;;;12.60;9.95;;;;;;;;;;5014240;28;20058;-76
2022/01/13 09:47:15;;;;;;;13.60;9.63;;;;;;;;;;5012576;28;20494;-76
2022/01/13 09:49:43;;;;;;;16.65;10.57;;;;;;;;;;5013675;28;20024;-76
2022/01/13 09:52:09;;;;;;;13.98;9.98;;;;;;;;;;5012884;28;20026;-76
2022/01/13 09:54:35;;;;;;;15.50;10.23;;;10.00;99.30;;;;;;5013890;28;20100;-76
2022/01/13 09:57:00;;;;;;;14.73;9.48;;;13.40;87.10;;;;;;5012637;28;20034;-75
2022/01/13 09:59:27;;;;;;;13.57;9.40;;;12.90;83.80;;;;;;5013371;28;20030;-74
2022/01/13 10:01:53;;;;;;;14.85;9.85;;;14.60;78.90;;;;;;5012763;28;20110;-75
2022/01/13 10:04:18;;;;;;;12.63;9.40;;;13.50;79.00;;;;;;5013355;28;20136;-75
2022/01/13 10:06:47;;;;;;;18.13;10.63;;;13.00;78.70;;;;;;5013877;28;20065;-75
2022/01/13 10:09:14;;;;;;;16.30;10.40;;;14.60;80.10;;;;;;5005636;28;20117;-75
2022/01/13 10:11:44;;;;;;;14.23;10.45;;;13.00;80.30;;;;;;4994590;28;20099;-75
2022/01/13 10:16:56;;;;;;;16.00;10.88;;;11.90;79.90;;;;;;5011071;28;20478;-74
2022/01/13 10:19:29;;;;;;;15.63;11.25;;;12.20;83.20;;;;;;5008974;28;20041;-75
2022/01/13 10:22:01;;;;;;;15.45;11.70;;;11.10;84.30;;;;;;4990875;28;20172;-75
2022/01/13 10:24:29;;;;;;;20.08;12.10;;;12.60;86.60;;;;;;5008917;28;20072;-75
2022/01/13 10:27:02;;;;;;;14.43;10.20;;;11.40;84.70;;;;;;5007684;28;20026;-74
2022/01/13 10:29:37;;;;;;;14.20;9.70;;;;;;;;;;5008635;28;20026;-75
2022/01/13 10:32:04;;;;;;;13.73;9.82;;;;;;;;;;5007839;28;20030;-74
2022/01/13 10:34:32;;;;;;;16.02;10.65;;;;;;;;;;5008963;28;20018;-73
2022/01/13 10:37:04;;;;;;;14.10;9.48;;;;;;;;;;5009867;28;20026;-74
2022/01/13 10:39:57;;;;;;;12.20;8.20;;;;;;;;;;5008543;28;20033;-74
2022/01/13 10:45:11;;;;;;;10.95;7.55;;;;;;;;;;5008565;28;20141;-74
2022/01/13 10:47:38;;;;;;;10.52;6.70;;;;;;;;;;5008712;28;20022;-74
2022/01/13 10:50:14;;;;;;;9.60;6.45;;;;;;;;;;5008973;28;20036;-75
2022/01/13 10:52:40;;;;;;;11.32;7.80;;;;;;;;;;5008261;28;20037;-75
2022/01/13 10:55:11;;;;;;;12.27;7.85;;;;;;;;;;5008187;28;20108;-75
2022/01/13 10:57:43;;;;;;;11.60;7.53;;;11.20;84.70;;;;;;5001350;28;20434;-75
2022/01/13 11:00:17;;;;;;;12.40;8.40;;;13.10;85.20;;;;;;5003421;28;20513;-75
2022/01/13 11:03:19;;;;;;;13.55;8.52;;;;;;;;;;5007638;28;20065;-75
2022/01/13 11:05:46;;;;;;;9.50;7.57;;;;;;;;;;5006559;28;20037;-75
2022/01/13 11:08:25;;;;;;;12.45;8.07;;;13.50;82.70;;;;;;5002824;28;20313;-76
2022/01/13 11:10:52;;;;;;;9.85;7.55;;;14.60;78.20;;;;;;4986954;28;20065;-76
2022/01/13 11:13:19;;;;;;;9.77;7.00;;;14.80;76.80;;;;;;4990666;28;20038;-76
2022/01/13 11:15:50;;;;;;;9.07;6.68;;;14.20;76.40;;;;;;5008058;28;20486;-76
2022/01/13 11:18:20;;;;;;;9.07;6.75;;;14.30;77.60;;;;;;4995351;28;20034;-75
2022/01/13 11:20:47;;;;;;;9.68;7.40;;;14.10;75.80;;;;;;5006046;28;20028;-76
2022/01/13 11:23:14;;;;;;;10.27;7.40;;;14.60;77.70;;;;;;5003565;28;20030;-76
2022/01/13 11:25:40;;;;;;;10.48;6.53;;;14.20;76.70;;;;;;5011887;28;20080;-76
2022/01/13 11:28:07;;;;;;;9.38;6.72;;;13.70;77.80;;;;;;5011791;28;20038;-77
2022/01/13 11:30:33;;;;;;;8.55;6.25;;;15.20;77.60;;;;;;5011252;28;20022;-76
2022/01/13 11:33:01;;;;;;;10.32;5.95;;;14.30;77.30;;;;;;4998790;28;20373;-76
2022/01/13 11:35:32;;;;;;;9.13;6.25;;;14.10;76.20;;;;;;4990405;28;20026;-78
2022/01/13 11:38:08;;;;;;;12.90;7.03;;;14.20;77.00;;;;;;5011724;28;20046;-76
2022/01/13 11:40:41;;;;;;;10.13;6.97;;;14.30;75.00;;;;;;4993894;28;20065;-77
2022/01/13 11:43:21;;;;;;;9.65;6.55;;;14.10;76.40;;;;;;5009892;28;20025;-76
2022/01/13 11:45:47;;;;;;;10.90;7.43;;;14.10;77.00;;;;;;5011610;28;20112;-76
2022/01/13 11:48:16;;;;;;;11.77;8.02;;;14.20;75.90;;;;;;5012323;28;20049;-76
2022/01/13 11:50:50;;;;;;;11.15;8.75;;;15.00;77.10;;;;;;5011609;28;20018;-76
2022/01/13 11:53:24;;;;;;;11.20;8.20;;;14.00;76.20;;;;;;5012173;28;20089;-76
2022/01/13 11:56:11;;;;;;;11.43;8.25;;;13.80;76.10;;;;;;5010954;28;20050;-76
2022/01/13 11:58:42;;;;;;;10.13;7.70;;;13.80;77.20;;;;;;5011414;28;20517;-76
2022/01/13 12:01:21;;;;;;;12.85;8.38;;;14.30;77.00;;;;;;5012071;28;20029;-76
2022/01/13 12:03:49;;;;;;;13.38;7.57;;;14.10;75.30;;;;;;5012226;28;20038;-76
2022/01/13 12:06:39;;;;;;;15.73;10.13;;;14.40;75.60;;;;;;5011915;28;20026;-76
2022/01/13 12:09:07;;;;;;;14.50;8.30;;;14.30;73.90;;;;;;5004442;28;20081;-76
2022/01/13 12:11:50;;;;;;;10.15;7.82;;;14.60;75.50;;;;;;5001864;28;20030;-76
2022/01/13 12:14:24;;;;;;;;;;;14.60;73.40;;;;;;5011991;28;20073;-76
2022/01/13 12:16:53;;;;;;;10.90;7.90;;;14.50;74.80;;;;;;5012171;28;19963;-76
2022/01/13 12:19:47;;;;;;;10.93;7.75;;;14.10;76.30;;;;;;5010525;28;20044;-76
2022/01/13 12:22:26;;;;;;;10.40;7.07;;;14.20;74.60;;;;;;5005982;28;20078;-76
2022/01/13 12:24:59;;;;;;;10.80;7.75;;;13.90;75.50;;;;;;5003028;28;20057;-77
2022/01/13 12:27:38;;;;;;;10.27;6.97;;;14.20;74.40;;;;;;5011502;28;20034;-76
2022/01/13 12:30:11;;;;;;;11.60;6.90;;;13.80;75.70;;;;;;5010877;28;20467;-76
2022/01/13 12:32:47;;;;;;;10.32;7.05;;;13.70;75.30;;;;;;5010977;28;20034;-76
2022/01/13 12:35:33;;;;;;;8.95;6.75;;;13.90;76.80;;;;;;5010158;28;20041;-76
2022/01/13 12:38:22;;;;;;;11.20;7.68;;;14.20;75.10;;;;;;5011006;28;20487;-76
2022/01/13 12:40:50;;;;;;;9.30;6.82;;;14.80;75.60;;;;;;5013728;28;20030;-76
2022/01/13 12:46:06;;;;;;;16.02;10.20;;;14.50;73.90;;;;;;5018739;28;20049;-77
2022/01/13 12:48:32;;;;;;;12.30;8.57;;;14.50;75.10;;;;;;5015768;28;20506;-77
2022/01/13 12:50:59;;;;;;;10.52;8.23;;;15.10;74.00;;;;;;5014280;28;20375;-77
2022/01/13 12:53:27;;;;;;;9.82;7.20;;;14.80;74.20;;;;;;5015003;28;20372;-77
2022/01/13 12:56:01;;;;;;;9.13;6.43;;;14.60;76.30;;;;;;5015370;28;20065;-77
2022/01/13 12:58:39;;;;;;;11.13;7.38;;;14.30;74.00;;;;;;5014917;28;20026;-77
2022/01/13 13:01:07;;;;;;;9.57;6.90;;;14.80;75.50;;;;;;5015207;28;20026;-76
2022/01/13 13:03:33;;;;;;;12.38;8.20;;;15.30;75.20;;;;;;5015654;28;20142;-77
2022/01/13 13:05:59;;;;;;;11.05;7.05;;;14.90;74.80;;;;;;5015988;28;20034;-77
2022/01/13 13:08:27;;;;;;;9.35;6.60;;;14.70;75.10;;;;;;5020357;28;20030;-76